Time;durP1;ratioP1;P1;durP2;ratioP2;P2;SDS_P1;SDS_P2;PMS_P1;PMS_P2;Temp;Humidity;BMP_temperature;BMP_pressure;BME280_temperature;BME280_humidity;BME280_pressure;Samples;Min_cycle;Max_cycle;Signal;HPM_P1;HPM_P2
2024/03/16 00:00:32;;;;;;;3.53;3.00;;;13.50;99.90;;;;;;4956753;29;20188;-60
2024/03/16 00:02:59;;;;;;;3.00;2.70;;;13.50;99.90;;;;;;4957269;29;20177;-60
2024/03/16 00:05:26;;;;;;;6.37;2.97;;;13.50;99.90;;;;;;4956533;29;20420;-60
2024/03/16 00:07:51;;;;;;;3.57;3.00;;;13.50;99.90;;;;;;4939466;29;20925;-60
2024/03/16 00:10:17;;;;;;;3.60;3.27;;;13.50;99.90;;;;;;4957366;29;20499;-60
2024/03/16 00:12:43;;;;;;;3.20;3.00;;;13.50;99.90;;;;;;4956718;29;20181;-60
2024/03/16 00:15:09;;;;;;;3.63;3.33;;;13.50;99.90;;;;;;4957006;29;20177;-60
2024/03/16 00:17:36;;;;;;;3.47;3.20;;;13.60;99.90;;;;;;4956011;29;20205;-60
2024/03/16 00:20:07;;;;;;;4.30;4.00;;;13.60;99.90;;;;;;4939740;29;20790;-60
2024/03/16 00:22:32;;;;;;;3.77;3.57;;;13.60;99.90;;;;;;4956337;29;20401;-60
2024/03/16 00:25:00;;;;;;;3.57;3.37;;;13.60;99.90;;;;;;4956772;29;20413;-60
2024/03/16 00:27:26;;;;;;;3.87;3.67;;;13.50;99.90;;;;;;4955955;29;20861;-60
2024/03/16 00:29:51;;;;;;;4.17;3.97;;;13.50;99.90;;;;;;4956181;29;20467;-60
2024/03/16 00:32:17;;;;;;;5.97;4.00;;;13.60;99.90;;;;;;4956729;29;20920;-60
2024/03/16 00:34:43;;;;;;;4.00;3.47;;;13.50;99.90;;;;;;4956066;29;20618;-60
2024/03/16 00:37:08;;;;;;;4.00;3.80;;;13.50;99.90;;;;;;4956155;29;20216;-60
2024/03/16 00:39:35;;;;;;;3.77;3.57;;;13.50;99.90;;;;;;4955908;29;20177;-60
2024/03/16 00:42:01;;;;;;;3.40;3.30;;;13.60;99.90;;;;;;4956520;29;20174;-60
2024/03/16 00:44:27;;;;;;;3.87;3.57;;;13.60;99.90;;;;;;4955843;29;20467;-60
2024/03/16 00:46:53;;;;;;;4.80;3.97;;;13.60;99.90;;;;;;4956423;29;20413;-60
2024/03/16 00:49:19;;;;;;;3.30;3.20;;;13.60;99.90;;;;;;4956114;29;20824;-60
2024/03/16 00:51:45;;;;;;;4.27;3.87;;;13.60;99.90;;;;;;4955695;29;20413;-60
2024/03/16 00:54:11;;;;;;;4.00;3.70;;;13.60;99.90;;;;;;4956368;29;20554;-60
2024/03/16 00:56:38;;;;;;;3.30;3.20;;;13.60;99.90;;;;;;4955380;29;21034;-60
2024/03/16 00:59:04;;;;;;;3.40;3.30;;;13.40;99.90;;;;;;4938825;29;20570;-60
2024/03/16 01:01:33;;;;;;;3.10;3.00;;;13.50;99.90;;;;;;4955597;29;20487;-60
2024/03/16 01:04:02;;;;;;;3.63;3.33;;;13.40;99.90;;;;;;4955332;28;20485;-60
2024/03/16 01:06:28;;;;;;;3.40;3.30;;;13.40;99.90;;;;;;4955162;29;20427;-60
2024/03/16 01:08:54;;;;;;;4.10;3.80;;;13.50;99.90;;;;;;4955836;29;20410;-60
2024/03/16 01:11:22;;;;;;;3.20;3.00;;;13.50;99.90;;;;;;4955957;29;20916;-60
2024/03/16 01:13:48;;;;;;;5.63;3.50;;;13.50;99.90;;;;;;4955070;29;20177;-60
2024/03/16 01:16:14;;;;;;;3.90;3.70;;;13.50;99.90;;;;;;4956017;29;20424;-60
2024/03/16 01:18:40;;;;;;;3.90;3.60;;;13.40;99.90;;;;;;4955015;29;20420;-60
2024/03/16 01:21:06;;;;;;;5.63;3.60;;;13.40;99.90;;;;;;4955771;29;20409;-60
2024/03/16 01:23:33;;;;;;;3.53;3.40;;;13.40;99.90;;;;;;4955114;29;20189;-60
2024/03/16 01:26:04;;;;;;;3.70;3.50;;;13.40;99.90;;;;;;4955537;29;20428;-60
2024/03/16 01:28:30;;;;;;;5.87;3.20;;;13.40;99.90;;;;;;4954670;29;20464;-60
2024/03/16 01:30:57;;;;;;;8.17;4.10;;;13.40;99.90;;;;;;4926628;29;20418;-60
2024/03/16 01:33:24;;;;;;;3.60;3.40;;;13.40;99.90;;;;;;4917486;29;20423;-60
2024/03/16 01:35:50;;;;;;;5.13;3.30;;;13.40;99.90;;;;;;4921854;29;20413;-60
2024/03/16 01:38:16;;;;;;;4.00;3.60;;;13.40;99.90;;;;;;4955223;29;20450;-60
2024/03/16 01:40:43;;;;;;;3.90;3.60;;;13.30;99.90;;;;;;4954864;29;20883;-60
2024/03/16 01:43:13;;;;;;;3.47;3.27;;;13.30;99.90;;;;;;4955399;29;20423;-60
2024/03/16 01:45:40;;;;;;;4.03;3.63;;;13.30;99.90;;;;;;4954621;29;20405;-60
2024/03/16 01:48:10;;;;;;;3.83;3.00;;;13.30;99.90;;;;;;4955104;29;20826;-60
2024/03/16 01:50:39;;;;;;;3.77;3.57;;;13.30;99.90;;;;;;4954734;29;20400;-60
2024/03/16 01:53:09;;;;;;;3.93;3.50;;;13.30;99.90;;;;;;4954992;29;20499;-60
2024/03/16 01:55:36;;;;;;;4.60;3.37;;;13.30;99.90;;;;;;4954817;29;20908;-60
2024/03/16 01:58:04;;;;;;;4.13;3.10;;;13.30;99.90;;;;;;4955250;29;20459;-60
2024/03/16 02:00:33;;;;;;;3.60;3.30;;;13.30;99.90;;;;;;4954575;29;20417;-60
2024/03/16 02:02:59;;;;;;;3.37;3.07;;;13.30;99.90;;;;;;4954885;29;20408;-60
2024/03/16 02:05:25;;;;;;;3.53;2.90;;;13.30;99.90;;;;;;4955047;29;20440;-60
2024/03/16 02:07:51;;;;;;;3.20;2.90;;;13.30;99.90;;;;;;4954300;29;20420;-60
2024/03/16 02:10:17;;;;;;;5.37;3.23;;;13.30;99.90;;;;;;4937843;29;20967;-60
2024/03/16 02:12:43;;;;;;;4.43;3.00;;;13.30;99.90;;;;;;4954101;29;20169;-60
2024/03/16 02:15:10;;;;;;;4.83;3.17;;;13.30;99.90;;;;;;4955193;28;20495;-60
2024/03/16 02:17:37;;;;;;;4.13;3.70;;;13.30;99.90;;;;;;4954136;29;20464;-60
2024/03/16 02:20:04;;;;;;;4.57;3.17;;;13.30;99.90;;;;;;4954879;29;20460;-60
2024/03/16 02:22:30;;;;;;;3.13;2.93;;;13.30;99.90;;;;;;4954550;29;20405;-60
2024/03/16 02:24:56;;;;;;;4.37;3.23;;;13.30;99.90;;;;;;4954731;29;20424;-60
2024/03/16 02:27:22;;;;;;;3.50;2.90;;;13.30;99.90;;;;;;4954268;29;20890;-60
2024/03/16 02:29:48;;;;;;;5.03;3.00;;;13.40;99.90;;;;;;4936873;29;20484;-60
2024/03/16 02:32:14;;;;;;;3.77;2.93;;;13.40;99.90;;;;;;4954746;29;20197;-60
2024/03/16 02:34:40;;;;;;;3.43;2.50;;;13.30;99.90;;;;;;4954454;29;20934;-60
2024/03/16 02:37:10;;;;;;;3.80;2.83;;;13.40;99.90;;;;;;4954594;29;20223;-60
2024/03/16 02:39:36;;;;;;;3.07;2.77;;;13.40;99.90;;;;;;4954057;29;20480;-60
2024/03/16 02:42:03;;;;;;;3.97;2.87;;;13.40;99.90;;;;;;4954600;29;20409;-60
2024/03/16 02:44:29;;;;;;;4.83;3.20;;;13.40;99.90;;;;;;4954492;29;20491;-60
2024/03/16 02:46:59;;;;;;;4.33;3.33;;;13.40;99.90;;;;;;4953929;29;20417;-60
2024/03/16 02:49:25;;;;;;;3.23;2.90;;;13.30;99.90;;;;;;4954547;29;20500;-60
2024/03/16 02:51:52;;;;;;;6.90;3.63;;;13.40;99.90;;;;;;4936749;29;20413;-60
2024/03/16 02:54:19;;;;;;;3.50;3.20;;;13.40;99.90;;;;;;4954486;29;20421;-60
2024/03/16 02:56:45;;;;;;;3.20;3.00;;;13.40;99.90;;;;;;4953961;29;20464;-60
2024/03/16 02:59:12;;;;;;;3.70;3.40;;;13.40;99.90;;;;;;4954459;29;20428;-60
2024/03/16 03:01:38;;;;;;;3.57;3.30;;;13.40;99.90;;;;;;4953848;29;20398;-60
2024/03/16 03:04:06;;;;;;;3.93;3.63;;;13.40;99.90;;;;;;4954421;29;20410;-60
2024/03/16 03:06:33;;;;;;;4.70;3.70;;;13.40;99.90;;;;;;4954631;29;20436;-60
2024/03/16 03:08:59;;;;;;;3.80;3.40;;;13.40;99.90;;;;;;4954082;29;20481;-60
2024/03/16 03:11:25;;;;;;;3.93;3.63;;;13.30;99.90;;;;;;4954360;29;20405;-60
2024/03/16 03:13:51;;;;;;;3.47;3.17;;;13.30;99.90;;;;;;4953730;29;20409;-60
2024/03/16 03:16:20;;;;;;;4.10;3.33;;;13.30;99.90;;;;;;4936965;29;20420;-60
2024/03/16 03:18:50;;;;;;;3.83;3.63;;;13.30;99.90;;;;;;4953684;29;20429;-60
2024/03/16 03:21:16;;;;;;;4.50;4.20;;;13.30;99.90;;;;;;4954326;29;20726;-59
2024/03/16 03:23:42;;;;;;;5.53;3.80;;;13.40;99.90;;;;;;4953603;29;20473;-60
2024/03/16 03:26:11;;;;;;;3.97;3.60;;;13.30;99.90;;;;;;4954367;28;20535;-60
2024/03/16 03:28:38;;;;;;;4.37;3.40;;;13.30;99.90;;;;;;4957185;29;20484;-60
2024/03/16 03:31:04;;;;;;;6.17;3.63;;;13.30;99.90;;;;;;4957730;29;20417;-60
2024/03/16 03:33:31;;;;;;;4.23;3.80;;;13.30;99.90;;;;;;4957915;29;20428;-60
2024/03/16 03:35:57;;;;;;;6.23;4.23;;;13.20;99.90;;;;;;4957142;29;20414;-60
2024/03/16 03:38:23;;;;;;;3.83;3.53;;;13.20;99.90;;;;;;4957708;29;20455;-60
2024/03/16 03:40:49;;;;;;;3.60;3.40;;;13.20;99.90;;;;;;4957123;29;20467;-60
2024/03/16 03:43:19;;;;;;;4.50;4.20;;;13.20;99.90;;;;;;4957707;29;20475;-60
2024/03/16 03:50:53;;;;;;;4.27;3.97;;;13.20;99.90;;;;;;4956955;29;20405;-60
2024/03/16 03:53:21;;;;;;;4.37;4.07;;;13.30;99.90;;;;;;4957404;29;20842;-60
2024/03/16 03:55:47;;;;;;;5.00;4.33;;;13.30;99.90;;;;;;4956787;29;20411;-60
2024/03/16 03:58:13;;;;;;;4.50;4.10;;;13.30;99.90;;;;;;4940123;29;20550;-60
2024/03/16 04:00:39;;;;;;;4.70;4.30;;;13.20;99.90;;;;;;4956483;29;20512;-60
2024/03/16 04:03:08;;;;;;;4.60;4.20;;;13.20;99.90;;;;;;4957348;29;20435;-60
2024/03/16 04:05:34;;;;;;;5.80;4.53;;;13.20;99.90;;;;;;4957002;29;20213;-60
2024/03/16 04:08:00;;;;;;;5.13;4.73;;;13.20;99.90;;;;;;4956631;29;20452;-60
2024/03/16 04:10:26;;;;;;;5.20;4.80;;;13.20;99.90;;;;;;4957201;29;20177;-60
2024/03/16 04:12:52;;;;;;;4.70;4.30;;;13.30;99.90;;;;;;4956468;29;20413;-60
2024/03/16 04:15:18;;;;;;;4.57;4.37;;;13.30;99.90;;;;;;4957175;29;20424;-60
2024/03/16 04:17:44;;;;;;;5.00;4.60;;;13.20;99.90;;;;;;4956324;29;20292;-60
2024/03/16 04:20:10;;;;;;;5.80;5.30;;;13.20;99.90;;;;;;4957003;29;20809;-60
2024/03/16 04:22:36;;;;;;;5.77;5.27;;;13.20;99.90;;;;;;4956703;29;20408;-60
2024/03/16 04:25:11;;;;;;;6.57;4.50;;;13.20;99.90;;;;;;4956618;29;20271;-60
2024/03/16 04:27:38;;;;;;;5.43;5.00;;;13.30;99.90;;;;;;4956978;29;20423;-59
2024/03/16 04:30:08;;;;;;;5.13;4.70;;;13.30;99.90;;;;;;4957125;29;20409;-60
2024/03/16 04:32:35;;;;;;;5.47;4.97;;;13.30;99.90;;;;;;4939790;29;20496;-60
2024/03/16 04:35:02;;;;;;;5.17;4.60;;;13.40;99.90;;;;;;4939005;29;20436;-60
2024/03/16 04:37:28;;;;;;;5.10;4.60;;;13.40;99.90;;;;;;4956021;28;20546;-60
2024/03/16 04:39:55;;;;;;;5.40;5.00;;;13.40;99.90;;;;;;4955433;29;20512;-60
2024/03/16 04:42:22;;;;;;;6.97;5.10;;;13.40;99.90;;;;;;4956641;29;20177;-60
2024/03/16 04:44:47;;;;;;;5.27;4.87;;;13.40;99.90;;;;;;4955942;29;20403;-60
2024/03/16 04:47:13;;;;;;;5.83;4.67;;;13.40;99.90;;;;;;4956277;29;20420;-60
2024/03/16 04:49:39;;;;;;;6.60;4.97;;;13.40;99.90;;;;;;4956039;29;20507;-60
2024/03/16 04:52:07;;;;;;;5.60;5.20;;;13.30;99.90;;;;;;4956427;29;20484;-60
2024/03/16 04:54:32;;;;;;;5.40;5.10;;;13.40;99.90;;;;;;4956405;29;20499;-60
2024/03/16 04:56:58;;;;;;;5.80;5.40;;;13.40;99.90;;;;;;4955394;29;20555;-60
2024/03/16 04:59:24;;;;;;;6.07;5.60;;;13.40;99.90;;;;;;4956277;29;20215;-60
2024/03/16 05:01:50;;;;;;;6.00;5.33;;;13.40;99.90;;;;;;4955622;29;20719;-60
2024/03/16 05:04:15;;;;;;;6.07;5.47;;;13.30;99.90;;;;;;4956303;29;20185;-60
2024/03/16 05:06:41;;;;;;;7.30;6.00;;;13.30;99.90;;;;;;4955301;29;20181;-60
2024/03/16 05:09:09;;;;;;;7.00;6.30;;;13.30;99.90;;;;;;4956365;29;20193;-60
2024/03/16 05:11:38;;;;;;;6.03;5.57;;;13.30;99.90;;;;;;4956336;29;20552;-60
2024/03/16 05:14:08;;;;;;;8.20;6.27;;;13.30;99.90;;;;;;4955442;29;20408;-60
2024/03/16 05:16:38;;;;;;;7.07;6.47;;;13.30;99.90;;;;;;4956140;29;20514;-60
2024/03/16 05:19:06;;;;;;;7.30;6.70;;;13.20;99.90;;;;;;4955392;29;20429;-59
2024/03/16 05:21:32;;;;;;;7.10;6.40;;;13.30;99.90;;;;;;4956136;29;20476;-60
2024/03/16 05:23:59;;;;;;;6.17;5.63;;;13.20;99.90;;;;;;4955168;29;20428;-60
2024/03/16 05:26:26;;;;;;;6.23;5.73;;;13.20;99.90;;;;;;4955656;29;20452;-60
2024/03/16 05:28:52;;;;;;;8.07;5.90;;;13.20;99.90;;;;;;4955053;29;20963;-60
2024/03/16 05:31:17;;;;;;;5.87;5.37;;;13.20;99.90;;;;;;4955883;29;20528;-60
2024/03/16 05:33:43;;;;;;;6.60;6.00;;;13.20;99.90;;;;;;4955065;29;20839;-60
2024/03/16 05:36:15;;;;;;;7.10;6.50;;;13.20;99.90;;;;;;4938558;29;20185;-60
2024/03/16 05:38:43;;;;;;;6.63;6.10;;;13.10;99.90;;;;;;4955869;29;20858;-60
2024/03/16 05:41:09;;;;;;;8.80;8.00;;;13.20;99.90;;;;;;4938321;29;20474;-60
2024/03/16 05:43:35;;;;;;;8.37;7.57;;;13.20;99.90;;;;;;4955212;29;20916;-60
2024/03/16 05:46:01;;;;;;;8.33;7.53;;;13.20;99.90;;;;;;4954801;29;20444;-60
2024/03/16 05:48:27;;;;;;;7.93;7.13;;;13.10;99.90;;;;;;4955144;29;20202;-60
2024/03/16 05:50:56;;;;;;;8.03;7.23;;;13.10;99.90;;;;;;4954486;28;20412;-60
2024/03/16 05:53:23;;;;;;;8.33;7.63;;;13.20;99.90;;;;;;4955019;29;20473;-60
2024/03/16 05:55:50;;;;;;;7.90;7.23;;;13.20;99.90;;;;;;4954634;29;20509;-60
2024/03/16 05:58:16;;;;;;;7.73;7.00;;;13.30;99.90;;;;;;4969950;28;20994;-60
2024/03/16 06:00:42;;;;;;;7.97;7.10;;;13.30;99.90;;;;;;4954878;29;20972;-60
2024/03/16 06:03:08;;;;;;;7.80;7.00;;;13.30;99.90;;;;;;4955150;29;20440;-60
2024/03/16 06:05:37;;;;;;;7.60;7.00;;;13.30;99.90;;;;;;4938076;29;20956;-60
2024/03/16 06:08:14;;;;;;;9.90;7.10;;;13.20;99.90;;;;;;4954418;29;20280;-60
2024/03/16 06:10:40;;;;;;;8.50;7.80;;;13.20;99.90;;;;;;4954868;29;20888;-60
2024/03/16 06:13:06;;;;;;;8.67;7.10;;;13.30;99.90;;;;;;4954436;29;20416;-60
2024/03/16 06:15:33;;;;;;;10.23;8.30;;;13.30;99.90;;;;;;4954917;29;20772;-60
2024/03/16 06:17:59;;;;;;;11.43;8.40;;;13.20;99.90;;;;;;4936882;29;20967;-60
2024/03/16 06:20:25;;;;;;;12.70;8.30;;;13.10;99.90;;;;;;4955184;29;20454;-60
2024/03/16 06:22:50;;;;;;;8.87;7.97;;;13.10;99.90;;;;;;4937024;29;20545;-60
2024/03/16 06:25:17;;;;;;;9.20;7.83;;;13.10;99.90;;;;;;4954665;29;20177;-60
2024/03/16 06:27:54;;;;;;;9.90;8.20;;;13.10;99.90;;;;;;4954758;29;20187;-59
2024/03/16 06:30:27;;;;;;;9.73;7.80;;;13.10;99.90;;;;;;4937733;29;20491;-60
2024/03/16 06:33:08;;;;;;;10.83;9.17;;;13.10;99.90;;;;;;4954211;29;20404;-60
2024/03/16 06:35:36;;;;;;;10.17;9.17;;;13.00;99.90;;;;;;4937755;29;20404;-60
2024/03/16 06:38:02;;;;;;;12.40;10.47;;;12.90;99.90;;;;;;4953992;29;20467;-60
2024/03/16 06:40:28;;;;;;;11.83;10.57;;;12.90;99.90;;;;;;4954717;29;20436;-60
2024/03/16 06:42:54;;;;;;;12.73;10.83;;;12.90;99.90;;;;;;4953995;29;20431;-60
2024/03/16 06:45:19;;;;;;;10.53;9.43;;;12.90;99.90;;;;;;4954515;29;20184;-60
2024/03/16 06:47:45;;;;;;;11.23;9.83;;;12.80;99.90;;;;;;4954541;29;20236;-60
2024/03/16 06:50:12;;;;;;;11.07;9.40;;;12.80;99.90;;;;;;4954310;29;20220;-60
2024/03/16 06:52:39;;;;;;;11.80;9.27;;;13.00;99.90;;;;;;4954498;29;20415;-60
2024/03/16 06:55:06;;;;;;;9.47;8.57;;;12.80;99.90;;;;;;4953828;29;20414;-60
2024/03/16 06:57:33;;;;;;;12.07;7.90;;;12.70;99.90;;;;;;4954741;29;20463;-60
2024/03/16 06:59:59;;;;;;;7.97;7.27;;;12.60;99.90;;;;;;4953848;29;20487;-60
2024/03/16 07:02:25;;;;;;;6.57;5.87;;;12.70;99.90;;;;;;4957178;28;20418;-59
2024/03/16 07:04:50;;;;;;;5.17;4.80;;;12.60;99.90;;;;;;4957870;29;20634;-60
2024/03/16 07:07:16;;;;;;;4.80;4.60;;;12.50;99.90;;;;;;4941250;29;20269;-59
2024/03/16 07:09:42;;;;;;;5.40;5.00;;;12.50;99.90;;;;;;4941075;29;20182;-59
2024/03/16 07:12:08;;;;;;;5.43;5.13;;;12.40;99.90;;;;;;4957380;29;20185;-59
2024/03/16 07:14:33;;;;;;;5.50;5.10;;;12.40;99.90;;;;;;4958229;29;20180;-59
2024/03/16 07:16:59;;;;;;;5.93;5.43;;;12.40;99.90;;;;;;4957489;29;20235;-59
2024/03/16 07:19:25;;;;;;;4.87;4.60;;;12.30;99.90;;;;;;4958042;29;20180;-59
2024/03/16 07:21:51;;;;;;;5.27;4.87;;;12.20;99.90;;;;;;4957494;29;20655;-60
2024/03/16 07:24:17;;;;;;;4.73;4.53;;;12.20;99.90;;;;;;4958162;29;20193;-59
2024/03/16 07:26:44;;;;;;;4.43;4.20;;;12.20;99.90;;;;;;4957952;29;20796;-59
2024/03/16 07:29:13;;;;;;;4.60;4.40;;;12.10;99.90;;;;;;4939671;29;20518;-59
2024/03/16 07:31:39;;;;;;;4.63;4.33;;;12.10;99.90;;;;;;4957867;29;20414;-59
2024/03/16 07:34:04;;;;;;;4.10;3.90;;;12.10;99.90;;;;;;4972161;28;20415;-60
2024/03/16 07:36:31;;;;;;;4.00;3.80;;;12.10;99.90;;;;;;4940714;29;20678;-60
2024/03/16 07:38:57;;;;;;;3.90;3.70;;;12.10;99.90;;;;;;4956888;29;20642;-60
2024/03/16 07:41:23;;;;;;;3.50;3.30;;;12.20;99.90;;;;;;4957765;29;20416;-59
2024/03/16 07:43:49;;;;;;;4.13;3.93;;;12.10;99.90;;;;;;4957909;29;20429;-59
2024/03/16 07:46:15;;;;;;;4.20;3.80;;;12.10;99.90;;;;;;4957843;29;20781;-60
2024/03/16 07:48:41;;;;;;;3.90;3.70;;;12.10;99.90;;;;;;4957546;29;20409;-59
2024/03/16 07:51:07;;;;;;;4.00;3.60;;;12.10;99.90;;;;;;4956924;29;20180;-59
2024/03/16 07:53:33;;;;;;;3.80;3.60;;;12.00;99.90;;;;;;4957529;29;20571;-59
2024/03/16 07:55:59;;;;;;;3.90;3.50;;;12.00;99.90;;;;;;4956787;29;20258;-59
2024/03/16 07:58:25;;;;;;;4.03;3.73;;;12.00;99.90;;;;;;4957456;29;20455;-60
2024/03/16 08:00:51;;;;;;;3.63;3.53;;;12.00;99.90;;;;;;4957015;29;20964;-60
2024/03/16 08:03:17;;;;;;;4.43;4.13;;;12.00;99.90;;;;;;4957338;29;20447;-59
2024/03/16 08:05:44;;;;;;;5.00;4.57;;;12.00;99.90;;;;;;4940154;29;20599;-59
2024/03/16 08:08:09;;;;;;;4.50;4.30;;;12.00;99.90;;;;;;4956622;29;20826;-59
2024/03/16 08:10:35;;;;;;;4.47;4.27;;;12.00;99.90;;;;;;4957240;29;20427;-59
2024/03/16 08:13:01;;;;;;;5.20;4.80;;;12.00;99.90;;;;;;4956218;28;20169;-59
2024/03/16 08:15:27;;;;;;;5.27;4.97;;;12.00;99.90;;;;;;4956927;29;20539;-59
2024/03/16 08:17:54;;;;;;;6.57;5.97;;;12.10;99.90;;;;;;4971199;28;20298;-59
2024/03/16 08:20:20;;;;;;;6.00;5.50;;;12.10;99.90;;;;;;4956612;29;20184;-59
2024/03/16 08:22:48;;;;;;;6.50;5.90;;;12.10;99.90;;;;;;4956983;29;20416;-60
2024/03/16 08:25:14;;;;;;;6.17;5.77;;;12.10;99.90;;;;;;4956405;29;20404;-59
2024/03/16 08:27:40;;;;;;;7.13;6.10;;;12.10;99.90;;;;;;4956756;29;20427;-59
2024/03/16 08:30:07;;;;;;;6.37;5.87;;;12.10;99.90;;;;;;4956336;29;20419;-60
2024/03/16 08:32:33;;;;;;;6.23;5.73;;;12.10;99.90;;;;;;4956923;29;20225;-59
2024/03/16 08:34:58;;;;;;;5.37;4.97;;;12.10;99.90;;;;;;4956199;29;20451;-60
2024/03/16 08:37:24;;;;;;;5.40;5.00;;;12.10;99.90;;;;;;4956732;29;20928;-60
2024/03/16 08:39:50;;;;;;;5.80;5.40;;;12.20;99.90;;;;;;4956765;29;20620;-60
2024/03/16 08:42:16;;;;;;;5.77;5.10;;;12.30;99.90;;;;;;4956022;29;20180;-60
2024/03/16 08:44:42;;;;;;;5.70;5.30;;;12.40;99.90;;;;;;4956239;29;20633;-60
2024/03/16 08:47:07;;;;;;;6.10;5.60;;;12.40;99.90;;;;;;4932279;29;20428;-60
2024/03/16 08:49:34;;;;;;;6.03;5.63;;;12.40;99.90;;;;;;4937154;29;20185;-60
2024/03/16 08:52:00;;;;;;;7.27;5.40;;;12.50;99.90;;;;;;4936718;29;20906;-60
2024/03/16 08:54:27;;;;;;;5.93;5.50;;;12.60;99.90;;;;;;4937248;29;20416;-59
2024/03/16 08:56:52;;;;;;;6.10;5.70;;;12.60;99.90;;;;;;4937150;29;20461;-60
2024/03/16 08:59:18;;;;;;;6.40;5.43;;;12.70;99.90;;;;;;4936341;29;20444;-60
2024/03/16 09:01:44;;;;;;;5.73;5.43;;;12.70;99.90;;;;;;4951598;29;20420;-59
2024/03/16 09:04:12;;;;;;;6.03;5.63;;;12.70;99.90;;;;;;4936517;29;20251;-60
2024/03/16 09:06:40;;;;;;;5.00;4.70;;;12.70;99.90;;;;;;4936546;29;20173;-60
2024/03/16 09:09:10;;;;;;;4.10;3.90;;;12.70;99.90;;;;;;4936464;29;20848;-60
2024/03/16 09:11:38;;;;;;;5.40;5.00;;;12.60;99.90;;;;;;4937180;29;20408;-60
2024/03/16 09:14:05;;;;;;;8.87;6.80;;;12.50;99.90;;;;;;4936299;29;20466;-60
2024/03/16 09:16:36;;;;;;;4.43;3.00;;;12.40;99.90;;;;;;4936542;29;20515;-60
2024/03/16 09:19:02;;;;;;;4.40;3.60;;;12.40;99.90;;;;;;4936081;29;20772;-60
2024/03/16 09:21:28;;;;;;;3.10;2.90;;;12.20;99.90;;;;;;4936472;29;20758;-60
2024/03/16 09:23:54;;;;;;;3.33;2.97;;;12.10;99.90;;;;;;4936117;29;20407;-60
2024/03/16 09:26:20;;;;;;;3.13;2.87;;;12.10;99.90;;;;;;4936116;29;20791;-59
2024/03/16 09:28:46;;;;;;;3.47;3.27;;;12.10;99.90;;;;;;4936679;29;20463;-59
2024/03/16 09:31:12;;;;;;;3.90;3.60;;;12.10;99.90;;;;;;4935948;29;20181;-59
2024/03/16 09:33:38;;;;;;;3.30;3.10;;;12.10;99.90;;;;;;4936037;29;20175;-60
2024/03/16 09:36:06;;;;;;;3.60;3.40;;;12.10;99.90;;;;;;4918755;29;20212;-59
2024/03/16 09:38:32;;;;;;;3.33;3.03;;;12.10;99.90;;;;;;4919437;29;20257;-59
2024/03/16 09:40:59;;;;;;;3.80;3.20;;;12.10;99.90;;;;;;4935536;29;20421;-60
2024/03/16 09:43:25;;;;;;;4.03;3.73;;;12.10;99.90;;;;;;4936396;29;20403;-60
2024/03/16 09:45:57;;;;;;;4.87;4.03;;;12.10;99.90;;;;;;4936049;29;20463;-59
2024/03/16 09:48:22;;;;;;;3.53;3.27;;;12.20;99.90;;;;;;4936045;29;20411;-59
2024/03/16 09:50:49;;;;;;;5.60;3.60;;;12.10;99.90;;;;;;4936185;29;20759;-60
2024/03/16 09:53:28;;;;;;;4.00;3.70;;;12.20;99.90;;;;;;4935328;29;20253;-60
2024/03/16 09:55:56;;;;;;;4.37;3.97;;;12.20;99.90;;;;;;4919327;29;20467;-60
2024/03/16 09:58:25;;;;;;;3.87;3.60;;;12.30;99.90;;;;;;4918386;29;20549;-60
2024/03/16 10:00:54;;;;;;;3.90;3.70;;;12.30;99.90;;;;;;4935797;29;20473;-60
2024/03/16 10:03:21;;;;;;;3.90;3.60;;;12.30;99.90;;;;;;4918211;29;20422;-60
2024/03/16 10:05:49;;;;;;;3.57;3.27;;;12.30;99.90;;;;;;4936108;29;20404;-60
2024/03/16 10:08:20;;;;;;;4.10;3.80;;;12.30;99.90;;;;;;4949872;29;20434;-60
2024/03/16 10:10:47;;;;;;;3.33;3.13;;;12.30;99.90;;;;;;4919379;29;20880;-60
2024/03/16 10:13:14;;;;;;;3.27;3.07;;;12.20;99.90;;;;;;4934958;29;20877;-59
2024/03/16 10:15:42;;;;;;;3.20;3.00;;;12.20;99.90;;;;;;4935673;29;20474;-60
2024/03/16 10:18:14;;;;;;;4.53;3.50;;;12.10;99.90;;;;;;4934940;29;20458;-60
2024/03/16 10:20:43;;;;;;;3.90;3.60;;;12.10;99.90;;;;;;4935461;29;20446;-60
2024/03/16 10:23:15;;;;;;;3.80;3.47;;;12.10;99.90;;;;;;4935123;29;20451;-60
2024/03/16 10:25:47;;;;;;;4.20;3.87;;;12.10;99.90;;;;;;4935531;29;20400;-59
2024/03/16 10:28:15;;;;;;;5.00;4.10;;;12.10;99.90;;;;;;4934907;29;20475;-62
2024/03/16 10:30:44;;;;;;;3.20;2.70;;;12.10;99.90;;;;;;4935797;29;20457;-60
2024/03/16 10:33:11;;;;;;;3.83;3.53;;;12.10;99.90;;;;;;4917901;29;20918;-61
2024/03/16 10:35:39;;;;;;;4.10;3.70;;;12.20;99.90;;;;;;4935015;29;20513;-59
2024/03/16 10:38:19;;;;;;;3.40;3.10;;;12.20;99.90;;;;;;4934796;29;20474;-59
2024/03/16 10:40:45;;;;;;;2.50;2.30;;;12.20;99.90;;;;;;4935689;29;20432;-59
2024/03/16 10:43:14;;;;;;;2.80;2.60;;;12.20;99.90;;;;;;4934607;29;20975;-59
2024/03/16 10:45:47;;;;;;;2.30;2.20;;;12.30;99.90;;;;;;4935398;29;20412;-59
2024/03/16 10:48:14;;;;;;;2.63;2.43;;;12.40;99.90;;;;;;4934891;29;20438;-59
2024/03/16 10:50:48;;;;;;;3.33;3.00;;;12.40;99.90;;;;;;4950128;29;20449;-59
2024/03/16 10:53:16;;;;;;;3.20;2.90;;;12.50;99.90;;;;;;4934483;29;20412;-59
2024/03/16 10:55:43;;;;;;;3.50;3.20;;;12.50;99.90;;;;;;4935330;29;20405;-59
2024/03/16 10:58:25;;;;;;;5.00;3.30;;;12.50;99.90;;;;;;4934269;29;20452;-59
2024/03/16 11:00:56;;;;;;;3.13;3.00;;;12.60;99.90;;;;;;4935281;29;20519;-59
2024/03/16 11:03:25;;;;;;;2.93;2.77;;;12.60;99.90;;;;;;4934705;29;20772;-59
2024/03/16 11:05:57;;;;;;;3.67;3.37;;;12.70;99.90;;;;;;4917902;29;20418;-59
2024/03/16 11:08:41;;;;;;;3.40;2.40;;;12.70;99.90;;;;;;4934651;29;20417;-59
2024/03/16 11:11:21;;;;;;;3.43;3.13;;;12.80;99.90;;;;;;4934522;29;20397;-59
2024/03/16 11:14:16;;;;;;;4.00;3.67;;;12.70;99.90;;;;;;4935271;29;20402;-59
2024/03/16 11:16:50;;;;;;;3.63;3.00;;;12.70;99.90;;;;;;4935057;29;20437;-59
2024/03/16 11:19:22;;;;;;;4.07;3.77;;;12.60;99.90;;;;;;4934582;29;20407;-60
2024/03/16 11:21:52;;;;;;;3.60;3.30;;;12.60;99.90;;;;;;4935325;29;20416;-60
2024/03/16 11:24:19;;;;;;;3.20;3.00;;;12.60;99.90;;;;;;4934409;29;20940;-60
2024/03/16 11:26:45;;;;;;;3.23;2.80;;;12.50;99.90;;;;;;4935117;29;20417;-60
2024/03/16 11:29:23;;;;;;;3.43;2.60;;;12.50;99.90;;;;;;4934301;29;20464;-60
2024/03/16 11:31:56;;;;;;;6.10;2.50;;;12.50;99.90;;;;;;4934842;29;20769;-60
2024/03/16 11:34:22;;;;;;;2.73;2.40;;;12.50;99.90;;;;;;4934551;29;20420;-60
2024/03/16 11:36:49;;;;;;;3.00;2.80;;;12.50;99.90;;;;;;4934981;29;20952;-59
2024/03/16 11:39:24;;;;;;;2.13;2.03;;;12.50;99.90;;;;;;4934648;29;20442;-60
2024/03/16 11:41:53;;;;;;;1.90;1.80;;;12.50;99.90;;;;;;4935101;29;20488;-60
2024/03/16 11:44:19;;;;;;;2.17;2.07;;;12.50;99.90;;;;;;4934336;29;20412;-61
2024/03/16 11:46:48;;;;;;;3.40;2.40;;;12.60;99.90;;;;;;4934891;29;20417;-61
2024/03/16 11:49:15;;;;;;;2.03;1.93;;;12.60;99.90;;;;;;4952432;29;20429;-60
2024/03/16 11:51:42;;;;;;;2.23;2.07;;;12.60;99.90;;;;;;4938352;29;20539;-60
2024/03/16 11:54:08;;;;;;;2.00;1.90;;;12.60;99.90;;;;;;4937598;29;20409;-60
2024/03/16 11:56:37;;;;;;;8.03;2.83;;;12.60;99.90;;;;;;4938123;29;20421;-61
2024/03/16 11:59:08;;;;;;;2.07;1.90;;;12.60;99.90;;;;;;4937942;29;20943;-61
2024/03/16 12:01:39;;;;;;;3.37;2.43;;;12.60;99.90;;;;;;4938371;29;20480;-61
2024/03/16 12:04:06;;;;;;;2.37;2.27;;;12.70;99.90;;;;;;4938372;29;20413;-60
2024/03/16 12:06:36;;;;;;;2.60;2.50;;;12.70;99.90;;;;;;4938277;29;20768;-60
2024/03/16 12:09:02;;;;;;;2.30;2.20;;;12.70;99.90;;;;;;4937952;29;20409;-60
2024/03/16 12:11:28;;;;;;;2.60;2.23;;;12.70;99.90;;;;;;4937412;29;20410;-60
2024/03/16 12:14:23;;;;;;;3.97;2.60;;;12.60;99.90;;;;;;4937891;29;20409;-61
2024/03/16 12:16:49;;;;;;;2.30;2.10;;;12.60;99.90;;;;;;4929280;29;20477;-61
2024/03/16 12:19:16;;;;;;;2.20;2.10;;;12.60;99.90;;;;;;4937550;29;20836;-60
2024/03/16 12:21:46;;;;;;;2.83;2.63;;;12.60;99.90;;;;;;4938115;29;20428;-61
2024/03/16 12:24:16;;;;;;;4.90;3.30;;;12.50;99.90;;;;;;4919890;29;20808;-60
2024/03/16 12:26:50;;;;;;;3.27;3.07;;;12.50;99.90;;;;;;4937679;29;20423;-60
2024/03/16 12:29:18;;;;;;;6.13;3.43;;;12.30;99.90;;;;;;4937121;29;20463;-60
2024/03/16 12:31:44;;;;;;;2.93;2.60;;;12.30;99.90;;;;;;4937707;29;20483;-60
2024/03/16 12:34:14;;;;;;;2.73;2.53;;;12.30;99.90;;;;;;4937077;29;20472;-60
2024/03/16 12:36:41;;;;;;;3.17;2.87;;;12.30;99.90;;;;;;4937678;29;20417;-60
2024/03/16 12:39:08;;;;;;;3.00;2.40;;;12.30;99.90;;;;;;4936896;29;20435;-60
2024/03/16 12:41:49;;;;;;;3.43;2.80;;;12.30;99.90;;;;;;4937458;29;20451;-60
2024/03/16 12:44:17;;;;;;;2.50;2.40;;;12.40;99.90;;;;;;4936951;29;20409;-60
2024/03/16 12:46:45;;;;;;;3.43;2.73;;;12.50;99.90;;;;;;4937675;29;20420;-61
2024/03/16 12:49:11;;;;;;;2.67;2.47;;;12.60;99.90;;;;;;4936840;29;20432;-60
2024/03/16 12:51:37;;;;;;;2.63;2.53;;;12.60;99.90;;;;;;4937371;29;20421;-60